Time;durP1;ratioP1;P1;durP2;ratioP2;P2;SDS_P1;SDS_P2;PMS_P1;PMS_P2;Temp;Humidity;BMP_temperature;BMP_pressure;BME280_temperature;BME280_humidity;BME280_pressure;Samples;Min_cycle;Max_cycle;Signal;HPM_P1;HPM_P2
2023/10/10 00:01:30;;;;;;;33.35;31.55;;;;;;;10.17;100.00;101275.38;4970518;28;20426;-76
2023/10/10 00:04:10;;;;;;;33.72;31.83;;;;;;;10.00;100.00;101273.97;4971072;28;20482;-77
2023/10/10 00:06:38;;;;;;;31.70;30.00;;;;;;;9.02;100.00;101283.97;4970897;28;20069;-77
2023/10/10 00:09:09;;;;;;;32.88;31.08;;;;;;;9.76;100.00;101270.63;4970399;28;20325;-77
2023/10/10 00:11:38;;;;;;;60.65;57.75;;;;;;;9.54;100.00;101261.81;4970739;28;20068;-76
2023/10/10 00:14:15;;;;;;;35.55;33.60;;;;;;;9.08;100.00;101271.81;4970199;28;20082;-76
2023/10/10 00:16:41;;;;;;;32.42;30.63;;;;;;;9.29;100.00;101282.50;4970704;28;20047;-76
2023/10/10 00:19:19;;;;;;;35.10;33.22;;;;;;;9.35;100.00;101280.97;4970170;28;20215;-76
2023/10/10 00:21:46;;;;;;;32.28;30.58;;;;;;;9.25;100.00;101283.88;4970727;28;20159;-76
2023/10/10 00:24:14;;;;;;;32.22;30.42;;;;;;;8.59;100.00;101299.56;4964423;28;20043;-77
2023/10/10 00:26:43;;;;;;;42.47;40.28;;;;;;;9.21;100.00;101298.50;4969104;28;20437;-76
2023/10/10 00:29:11;;;;;;;48.00;45.40;;;;;;;9.37;100.00;101298.31;4974896;28;20139;-76
2023/10/10 00:35:09;;;;;;;39.40;37.40;;;;;;;9.17;100.00;101291.94;4976452;28;20073;-78
2023/10/10 00:37:44;;;;;;;35.78;33.92;;;;;;;9.01;100.00;101292.91;4976793;28;20480;-78
2023/10/10 00:40:17;;;;;;;36.33;34.42;;;;;;;8.83;100.00;101287.13;4976106;28;20050;-79
2023/10/10 00:42:48;;;;;;;31.13;29.52;;;;;;;8.55;100.00;101295.66;4976407;28;20059;-79
2023/10/10 00:45:17;;;;;;;30.45;28.85;;;;;;;9.06;100.00;101295.03;4975830;28;20058;-77
2023/10/10 00:47:53;;;;;;;42.80;40.70;;;;;;;9.06;100.00;101298.50;4975393;28;20109;-78
2023/10/10 00:50:25;;;;;;;33.03;31.25;;;;;;;9.08;100.00;101291.19;4975232;28;20055;-78
2023/10/10 00:53:20;;;;;;;32.47;30.48;;;;;;;8.56;100.00;101286.69;4976103;28;20051;-78
2023/10/10 00:56:29;;;;;;;33.08;31.13;;;;;;;8.10;100.00;101293.81;4974966;28;20065;-78
2023/10/10 00:59:08;;;;;;;27.38;25.77;;;;;;;7.90;100.00;101301.38;4975768;28;20047;-77
2023/10/10 01:01:35;;;;;;;30.40;28.80;;;;;;;7.43;100.00;101291.69;4974664;28;20057;-78
2023/10/10 01:04:28;;;;;;;28.00;26.40;;;;;;;7.77;100.00;101301.94;4975624;28;20050;-78
2023/10/10 01:07:03;;;;;;;;;;;;;;;7.82;100.00;101299.59;4975764;28;20082;-77
2023/10/10 01:09:39;;;;;;;33.63;31.83;;;;;;;8.16;100.00;101293.94;4975108;28;19926;-77
2023/10/10 01:12:35;;;;;;;38.28;36.33;;;;;;;8.35;100.00;101299.75;4976007;28;20127;-79
2023/10/10 01:15:08;;;;;;;34.55;32.78;;;;;;;8.29;100.00;101301.31;4974217;28;20047;-76
2023/10/10 01:17:49;;;;;;;30.15;28.55;;;;;;;8.08;100.00;101301.94;4974156;28;20442;-78
2023/10/10 01:20:25;;;;;;;33.47;31.67;;;;;;;8.06;100.00;101306.56;4960598;28;20039;-78
2023/10/10 01:22:56;;;;;;;31.08;29.48;;;;;;;8.14;100.00;101305.69;4975248;28;20113;-77
2023/10/10 01:25:41;;;;;;;29.23;27.73;;;;;;;8.02;100.00;101308.75;4971081;28;20075;-78
2023/10/10 01:28:15;;;;;;;32.42;30.83;;;;;;;7.66;100.00;101302.34;4975953;28;20137;-79
2023/10/10 01:30:57;;;;;;;31.60;29.80;;;;;;;7.50;100.00;101309.34;4975192;28;20151;-77
2023/10/10 01:33:35;;;;;;;34.47;32.78;;;;;;;7.55;100.00;101319.38;4971944;28;20043;-77
2023/10/10 01:36:11;;;;;;;37.97;35.97;;;;;;;7.04;100.00;101324.97;4971657;28;20047;-77
2023/10/10 01:39:08;;;;;;;35.05;33.15;;;;;;;7.79;100.00;101321.91;4972920;28;20058;-76
2023/10/10 01:41:38;;;;;;;30.80;29.10;;;;;;;7.43;100.00;101328.69;4965651;28;20062;-77
2023/10/10 01:44:17;;;;;;;34.42;32.72;;;;;;;7.85;100.00;101319.59;4959562;28;20082;-77
2023/10/10 01:46:45;;;;;;;37.28;35.47;;;;;;;7.66;100.00;101311.09;4972850;28;20053;-77
2023/10/10 01:49:20;;;;;;;36.25;34.45;;;;;;;7.62;100.00;101309.75;4962957;28;20062;-79
2023/10/10 01:51:53;;;;;;;34.47;32.58;;;;;;;7.69;100.00;101309.91;4974793;28;20053;-77
2023/10/10 01:54:22;;;;;;;33.15;31.38;;;;;;;7.72;100.00;101317.50;4969506;28;20407;-77
2023/10/10 01:56:53;;;;;;;32.58;30.88;;;;;;;7.66;100.00;101310.25;4974726;28;20061;-77
2023/10/10 01:59:25;;;;;;;28.92;27.45;;;;;;;7.69;100.00;101309.91;4974117;28;20082;-78
2023/10/10 02:01:54;;;;;;;36.83;35.13;;;;;;;7.78;100.00;101300.94;4974316;28;20042;-77
2023/10/10 02:04:27;;;;;;;36.40;34.70;;;;;;;7.61;100.00;101299.38;4974667;28;20054;-79
2023/10/10 02:07:01;;;;;;;33.17;31.73;;;;;;;7.77;100.00;101288.69;4974869;28;20153;-78
2023/10/10 02:09:33;;;;;;;33.05;31.45;;;;;;;7.74;100.00;101299.63;4972729;28;20046;-77
2023/10/10 02:12:12;;;;;;;42.65;40.65;;;;;;;7.72;100.00;101296.34;4973930;28;20059;-79
2023/10/10 02:15:35;;;;;;;44.47;42.67;;;;;;;7.82;100.00;101291.66;4974725;28;20138;-79
2023/10/10 02:18:06;;;;;;;;;;;;;;;7.85;100.00;101288.66;4963554;28;20054;-78
2023/10/10 02:24:09;;;;;;;50.67;48.60;;;;;;;7.88;100.00;101280.38;4974445;28;20125;-78
2023/10/10 02:26:38;;;;;;;43.88;41.97;;;;;;;8.07;100.00;101281.75;4972110;28;20055;-77
2023/10/10 02:29:21;;;;;;;48.53;45.95;;;;;;;8.24;100.00;101293.06;4972037;28;20133;-77
2023/10/10 02:32:06;;;;;;;56.63;54.33;;;;;;;8.31;100.00;101299.28;4971722;28;20043;-77
2023/10/10 02:34:43;;;;;;;54.50;52.20;;;;;;;7.56;100.00;101299.88;4967146;28;20051;-77
2023/10/10 02:37:30;;;;;;;43.38;41.47;;;;;;;7.88;100.00;101308.66;4971834;28;20126;-77
2023/10/10 02:40:07;;;;;;;29.58;28.25;;;;;;;8.06;100.00;101305.75;4970622;28;20054;-77
2023/10/10 02:42:36;;;;;;;42.15;40.30;;;;;;;7.47;100.00;101314.13;4958469;28;20053;-77
2023/10/10 02:45:02;;;;;;;43.38;41.47;;;;;;;7.72;100.00;101315.69;4966609;28;20457;-77
2023/10/10 02:47:32;;;;;;;36.70;34.90;;;;;;;7.80;100.00;101328.03;4972475;28;20430;-79
2023/10/10 02:50:10;;;;;;;37.40;35.50;;;;;;;7.66;100.00;101326.94;4972915;28;20584;-77
2023/10/10 02:52:59;;;;;;;42.15;40.25;;;;;;;7.25;100.00;101324.44;4960166;28;20134;-79
2023/10/10 02:55:33;;;;;;;49.60;47.20;;;;;;;7.47;100.00;101330.78;4971649;28;20078;-79
2023/10/10 03:01:50;;;;;;;34.03;32.47;;;;;;;7.58;100.00;101329.63;4955049;29;20042;-79
2023/10/10 03:04:17;;;;;;;32.65;31.15;;;;;;;7.43;100.00;101332.13;4962721;28;20449;-77
2023/10/10 03:06:44;;;;;;;34.25;32.55;;;;;;;7.21;100.00;101331.06;4971491;28;20745;-77
2023/10/10 03:09:28;;;;;;;45.72;43.35;;;;;;;7.26;100.00;101326.09;4971247;28;20077;-77
2023/10/10 03:12:04;;;;;;;46.67;44.28;;;;;;;6.96;100.00;101325.00;4968188;28;20082;-77
2023/10/10 03:14:33;;;;;;;38.15;36.22;;;;;;;6.82;100.00;101326.47;4968805;28;20057;-78
2023/10/10 03:17:05;;;;;;;37.78;35.88;;;;;;;6.84;100.00;101326.34;4971221;28;20516;-77
2023/10/10 03:19:38;;;;;;;32.95;31.05;;;;;;;6.84;100.00;101331.63;4969523;28;20097;-77
2023/10/10 03:22:28;;;;;;;28.33;26.73;;;;;;;6.82;100.00;101331.75;4966117;28;20081;-77
2023/10/10 03:25:21;;;;;;;40.72;38.47;;;;;;;6.96;100.00;101325.00;4963308;28;20434;-76
2023/10/10 03:27:54;;;;;;;33.30;31.30;;;;;;;6.52;100.00;101320.06;4970477;28;20058;-76
2023/10/10 03:30:34;;;;;;;37.67;35.67;;;;;;;6.96;100.00;101334.72;4970491;28;20061;-76
2023/10/10 03:33:16;;;;;;;41.47;39.22;;;;;;;7.41;100.00;101333.31;4971583;28;20517;-80
2023/10/10 03:36:07;;;;;;;39.72;37.42;;;;;;;7.25;100.00;101342.09;4973247;28;20051;-79
2023/10/10 03:38:45;;;;;;;29.75;27.85;;;;;;;7.43;100.00;101340.06;4971974;28;20130;-78
2023/10/10 05:23:29;;;;;;;34.85;32.85;;;;;;;7.23;100.00;101347.56;4972770;28;20490;-79
2023/10/10 05:23:35;;;;;;;25.52;23.77;;;;;;;9.44;100.00;101424.84;4974352;28;20085;-78
2023/10/10 05:26:22;;;;;;;25.60;23.90;;;;;;;9.23;100.00;101436.97;4969954;28;20050;-79
2023/10/10 05:29:00;;;;;;;25.40;23.50;;;;;;;9.58;100.00;101430.16;4964907;28;20054;-78
2023/10/10 05:32:08;;;;;;;26.75;23.98;;;;;;;9.60;100.00;101440.59;4971887;28;20042;-78
2023/10/10 05:35:18;;;;;;;25.50;23.70;;;;;;;9.85;100.00;101415.44;4975189;28;20046;-78
2023/10/10 05:37:55;;;;;;;27.17;25.17;;;;;;;10.04;100.00;101432.63;4969993;28;20054;-78
2023/10/10 05:40:24;;;;;;;29.17;27.17;;;;;;;10.12;100.00;101423.75;4974884;28;20057;-78
2023/10/10 05:43:33;;;;;;;28.10;26.20;;;;;;;10.07;100.00;101423.47;4974761;28;20126;-78
2023/10/10 05:46:19;;;;;;;29.65;27.45;;;;;;;10.19;100.00;101426.47;4975385;28;20137;-78
2023/10/10 05:48:46;;;;;;;28.45;26.67;;;;;;;10.50;100.00;101424.44;4975184;28;20055;-79
2023/10/10 05:54:38;;;;;;;29.05;27.10;;;;;;;11.09;100.00;101428.66;4975610;28;20050;-80
2023/10/10 06:00:51;;;;;;;31.48;29.05;;;;;;;11.91;100.00;101435.97;4975385;28;20041;-80
2023/10/10 06:10:48;;;;;;;24.23;22.50;;;;;;;11.70;100.00;101436.03;4975256;28;20118;-79
2023/10/10 06:13:19;;;;;;;24.15;21.90;;;;;;;14.78;100.00;101431.28;4974989;28;20051;-75
2023/10/10 06:15:50;;;;;;;24.40;22.80;;;;;;;18.90;100.00;101428.56;4974445;28;20057;-77
2023/10/10 06:18:19;;;;;;;74.22;27.00;;;;;;;16.51;100.00;101438.38;4973401;28;20138;-78
2023/10/10 06:20:47;;;;;;;36.20;28.80;;;;;;;13.38;100.00;101455.81;4973044;28;20051;-78
2023/10/10 06:23:22;;;;;;;26.15;24.10;;;;;;;13.18;100.00;101457.66;4968350;28;20051;-78
2023/10/10 06:25:58;;;;;;;43.38;31.02;;;;;;;13.20;100.00;101456.41;4969847;28;20054;-77
2023/10/10 06:28:42;;;;;;;39.45;29.67;;;;;;;13.08;100.00;101455.38;4973924;28;20477;-78
2023/10/10 06:31:12;;;;;;;33.40;28.15;;;;;;;13.27;100.00;101465.25;4972610;28;20118;-78
2023/10/10 06:33:41;;;;;;;31.35;28.00;;;;;;;13.44;100.00;101464.84;4972571;28;20051;-78
2023/10/10 06:46:05;;;;;;;30.33;28.23;;;;;;;14.70;100.00;101477.81;4915104;29;20051;-79
2023/10/10 06:48:40;;;;;;;27.17;24.83;;;;;;;15.32;100.00;101480.69;4914727;29;20131;-79
2023/10/10 06:51:09;;;;;;;26.48;24.52;;;;;;;15.44;100.00;101480.81;4914994;29;20477;-78
2023/10/10 06:57:05;;;;;;;28.13;26.02;;;;;;;15.90;100.00;101484.91;4914331;29;20079;-77
2023/10/10 06:59:40;;;;;;;29.42;27.23;;;;;;;16.07;100.00;101485.97;4914861;29;20127;-79
2023/10/10 07:05:33;;;;;;;29.55;27.35;;;;;;;16.69;100.00;101494.66;4973661;28;20041;-78
2023/10/10 07:08:35;;;;;;;27.85;25.65;;;;;;;17.50;100.00;101476.28;4973434;28;20054;-77
2023/10/10 07:11:02;;;;;;;28.25;25.85;;;;;;;17.71;100.00;101477.56;4973414;28;20043;-77
2023/10/10 07:13:59;;;;;;;28.05;25.85;;;;;;;18.05;100.00;101491.22;4973817;28;20485;-76
2023/10/10 07:16:54;;;;;;;29.27;26.95;;;;;;;18.65;100.00;101485.41;4965442;28;20407;-77
2023/10/10 07:20:54;;;;;;;30.08;24.77;;;;;;;18.56;100.00;101484.16;4960075;28;20105;-76
2023/10/10 07:22:28;;;;;;;28.00;25.90;;;;;;;17.71;100.00;101482.94;4972841;28;20130;-78
2023/10/10 07:25:06;;;;;;;26.67;24.67;;;;;;;18.27;100.00;101486.84;4965583;28;20118;-78
2023/10/10 07:27:35;;;;;;;27.20;25.20;;;;;;;17.28;100.00;101492.16;4969813;28;20083;-79
2023/10/10 07:30:16;;;;;;;27.90;25.80;;;;;;;18.78;100.00;101489.72;4972882;28;20133;-78
2023/10/10 07:32:50;;;;;;;27.83;25.58;;;;;;;17.18;100.00;101487.34;4973166;28;20512;-78
2023/10/10 07:35:36;;;;;;;101.10;39.05;;;;;;;18.39;100.00;101484.09;4972355;28;20425;-75
2023/10/10 07:38:04;;;;;;;31.23;28.52;;;;;;;19.17;96.48;101484.47;4964734;28;20488;-76
2023/10/10 07:40:40;;;;;;;28.92;26.42;;;;;;;17.76;100.00;101482.22;4972873;28;20437;-78
2023/10/10 07:43:16;;;;;;;29.00;26.60;;;;;;;18.07;88.43;101484.56;4972620;28;20441;-79
2023/10/10 07:45:51;;;;;;;30.25;27.55;;;;;;;17.86;83.43;101495.94;4971801;28;20050;-78
2023/10/10 07:51:07;;;;;;;27.33;25.13;;;;;;;19.67;75.02;101499.81;4971571;28;20055;-78
2023/10/10 07:53:44;;;;;;;28.35;26.05;;;;;;;21.21;62.52;101491.53;4972451;28;20492;-76
2023/10/10 07:56:13;;;;;;;46.65;32.50;;;;;;;18.35;78.97;101496.41;4972080;28;20050;-76
2023/10/10 07:58:49;;;;;;;28.33;25.98;;;;;;;20.80;77.82;101500.09;4971854;28;20066;-76
2023/10/10 08:01:27;;;;;;;27.00;25.05;;;;;;;21.12;63.90;101487.69;4958381;28;20117;-78
2023/10/10 08:04:04;;;;;;;28.02;26.02;;;;;;;20.12;67.50;101493.38;4964796;28;20046;-78
2023/10/10 08:06:33;;;;;;;27.20;25.20;;;;;;;18.74;77.36;101492.06;4970729;28;20114;-77
2023/10/10 08:09:18;;;;;;;28.33;26.30;;;;;;;21.71;62.47;101479.50;4972078;28;20059;-79
2023/10/10 08:11:45;;;;;;;27.42;25.42;;;;;;;22.08;59.99;101487.50;4967050;28;20065;-78
2023/10/10 08:14:12;;;;;;;26.52;24.52;;;;;;;22.59;58.26;101482.28;4970741;28;20042;-78
2023/10/10 08:16:40;;;;;;;26.23;24.52;;;;;;;23.36;55.53;101485.06;4970958;28;20101;-78
2023/10/10 08:19:08;;;;;;;36.75;27.80;;;;;;;23.34;50.52;101487.22;4970880;28;20042;-77
2023/10/10 08:21:37;;;;;;;28.90;26.75;;;;;;;23.49;51.52;101491.81;4971200;28;20137;-77
2023/10/10 08:24:12;;;;;;;27.75;25.75;;;;;;;23.02;52.62;101488.31;4971227;28;20050;-77
2023/10/10 08:26:46;;;;;;;27.23;25.33;;;;;;;23.65;52.41;101500.72;4966972;28;20063;-77
2023/10/10 08:29:15;;;;;;;27.48;25.38;;;;;;;23.19;46.92;101506.22;4970412;28;20046;-78
2023/10/10 08:31:54;;;;;;;27.60;25.40;;;;;;;23.27;47.33;101497.53;4970465;28;20058;-77
2023/10/10 08:34:21;;;;;;;28.90;26.40;;;;;;;22.13;51.51;101505.66;4959503;28;20055;-76
2023/10/10 08:36:49;;;;;;;26.73;24.48;;;;;;;20.50;61.01;101510.56;4970539;28;20437;-76
2023/10/10 08:39:25;;;;;;;27.17;24.88;;;;;;;23.13;52.59;101504.59;4967763;28;20043;-76
2023/10/10 08:41:53;;;;;;;26.60;24.50;;;;;;;24.38;48.67;101492.88;4970607;28;20125;-77
2023/10/10 08:44:36;;;;;;;27.45;25.42;;;;;;;24.14;46.28;101509.00;4970530;28;20061;-76
2023/10/10 08:47:16;;;;;;;28.67;26.48;;;;;;;24.75;44.79;101497.03;4974382;28;20051;-77
2023/10/10 08:49:47;;;;;;;27.73;25.60;;;;;;;24.42;44.88;101498.59;4974396;28;20050;-77
2023/10/10 08:52:20;;;;;;;26.30;24.30;;;;;;;24.29;45.22;101499.97;4973863;28;20054;-76
2023/10/10 08:54:51;;;;;;;27.48;25.38;;;;;;;23.53;46.13;101503.72;4960983;28;20054;-77
2023/10/10 08:57:26;;;;;;;27.63;25.52;;;;;;;24.17;46.50;101499.50;4973791;28;20433;-77
2023/10/10 08:59:53;;;;;;;28.08;25.88;;;;;;;23.59;48.02;101507.25;4973577;28;20058;-76
2023/10/10 09:02:22;;;;;;;26.17;24.08;;;;;;;24.30;43.63;101514.34;4974134;28;20061;-77
2023/10/10 09:04:50;;;;;;;38.85;32.35;;;;;;;24.57;42.19;101512.09;4972797;28;20453;-76
2023/10/10 09:07:21;;;;;;;44.33;25.77;;;;;;;24.99;40.13;101518.84;4974132;28;20047;-76
2023/10/10 09:10:11;;;;;;;32.95;30.40;;;;;;;24.74;38.20;101513.59;4973941;28;20080;-77
2023/10/10 09:15:30;;;;;;;31.60;29.13;;;;;;;24.66;40.58;101512.28;4967990;28;20141;-77
2023/10/10 09:18:14;;;;;;;25.55;23.55;;;;;;;26.17;37.75;101512.28;4973521;28;20302;-77
2023/10/10 09:20:44;;;;;;;26.45;24.25;;;;;;;23.18;42.12;101518.94;4974086;28;20050;-77
2023/10/10 09:23:22;;;;;;;25.75;23.55;;;;;;;23.71;43.35;101514.03;4973567;28;20556;-77
2023/10/10 09:26:09;;;;;;;25.83;23.60;;;;;;;25.34;39.02;101514.25;4973511;28;20053;-77
2023/10/10 09:28:46;;;;;;;26.92;24.73;;;;;;;23.09;42.52;101521.38;4971064;28;20489;-76
2023/10/10 09:31:20;;;;;;;27.05;24.60;;;;;;;23.12;43.79;101525.44;4973270;28;20047;-77
2023/10/10 09:33:54;;;;;;;27.05;24.75;;;;;;;25.82;38.96;101519.78;4973663;28;20106;-77
2023/10/10 09:36:29;;;;;;;25.38;23.38;;;;;;;25.64;37.19;101517.78;4973116;28;20058;-77
2023/10/10 09:39:14;;;;;;;24.77;22.77;;;;;;;26.04;37.79;101520.06;4973494;28;20077;-77
2023/10/10 09:42:00;;;;;;;24.83;22.73;;;;;;;25.14;37.96;101523.38;4972862;28;20066;-77
2023/10/10 09:44:53;;;;;;;25.33;23.23;;;;;;;24.22;40.10;101518.47;4971653;28;20502;-77
2023/10/10 09:52:53;;;;;;;27.42;25.35;;;;;;;24.55;41.76;101506.13;4972623;28;20133;-77
2023/10/10 09:55:42;;;;;;;26.08;23.98;;;;;;;24.60;41.35;101503.38;4973301;28;20047;-77
2023/10/10 09:58:26;;;;;;;26.08;24.08;;;;;;;24.38;38.85;101509.16;4972579;28;20065;-77
2023/10/10 10:01:04;;;;;;;26.92;24.80;;;;;;;25.82;40.72;101500.75;4973168;28;20051;-76
2023/10/10 10:03:42;;;;;;;28.45;26.15;;;;;;;24.12;44.93;101500.34;4970672;28;20062;-77
2023/10/10 10:06:36;;;;;;;26.83;24.63;;;;;;;23.29;47.06;101503.47;4970750;28;20167;-77
2023/10/10 10:09:46;;;;;;;28.77;26.75;;;;;;;23.72;46.36;101509.41;4972667;28;20062;-76
2023/10/10 10:12:52;;;;;;;25.70;23.70;;;;;;;24.33;43.81;101503.78;4926924;28;20062;-77
2023/10/10 10:15:48;;;;;;;25.60;23.50;;;;;;;21.89;52.96;101500.69;4972688;28;20047;-77
2023/10/10 10:18:44;;;;;;;28.48;26.38;;;;;;;23.30;49.36;101500.53;4972932;28;20049;-77
2023/10/10 10:21:18;;;;;;;25.85;23.85;;;;;;;26.34;41.41;101492.75;4962532;28;20057;-76
2023/10/10 10:23:57;;;;;;;26.10;23.90;;;;;;;26.93;38.48;101492.16;4973334;28;20133;-76
2023/10/10 10:26:35;;;;;;;27.80;25.60;;;;;;;27.96;37.63;101491.16;4972021;28;20138;-76
2023/10/10 10:29:15;;;;;;;29.80;27.50;;;;;;;28.38;36.34;101482.84;4973278;28;20609;-76
2023/10/10 10:31:51;;;;;;;27.02;24.92;;;;;;;27.90;35.07;101484.19;4972852;28;20137;-77
2023/10/10 10:34:34;;;;;;;26.48;24.38;;;;;;;28.72;35.06;101485.94;4972887;28;20134;-77
2023/10/10 10:37:13;;;;;;;27.40;25.40;;;;;;;29.28;33.09;101486.47;4972786;28;20528;-76
2023/10/10 10:40:23;;;;;;;27.15;25.15;;;;;;;29.20;33.07;101484.50;4970860;28;20437;-76
2023/10/10 10:42:34;;;;;;;28.27;25.92;;;;;;;28.31;33.84;101486.03;4972416;28;20142;-76
2023/10/10 10:45:33;;;;;;;27.08;24.88;;;;;;;27.25;35.96;101487.81;4972483;28;20050;-76
2023/10/10 10:48:07;;;;;;;29.52;25.25;;;;;;;28.62;33.92;101483.41;4968947;28;20134;-76
2023/10/10 10:50:42;;;;;;;29.80;27.10;;;;;;;28.53;32.60;101477.06;4971861;28;20146;-76
2023/10/10 10:53:30;;;;;;;25.05;23.00;;;;;;;29.61;32.73;101480.66;4972352;28;20059;-76
2023/10/10 10:59:12;;;;;;;27.30;25.10;;;;;;;24.37;37.12;101493.16;4959030;28;20101;-76
2023/10/10 11:01:43;;;;;;;25.23;23.23;;;;;;;24.34;39.73;101485.59;4968977;28;20430;-76
2023/10/10 11:04:23;;;;;;;25.88;23.77;;;;;;;25.00;39.32;101487.06;4971376;28;20046;-75
2023/10/10 11:07:00;;;;;;;27.90;25.50;;;;;;;26.46;35.48;101474.06;4967692;28;20563;-75
2023/10/10 11:09:30;;;;;;;26.08;23.98;;;;;;;26.61;34.20;101473.84;4969595;28;20047;-75
2023/10/10 11:12:08;;;;;;;26.45;24.45;;;;;;;28.72;31.31;101461.31;4971328;28;20415;-75
2023/10/10 11:14:44;;;;;;;57.85;25.88;;;;;;;26.42;33.20;101465.66;4953997;28;20066;-75
2023/10/10 11:17:37;;;;;;;25.55;23.45;;;;;;;26.84;36.15;101466.69;4971746;28;20498;-77
2023/10/10 11:20:26;;;;;;;25.10;23.20;;;;;;;26.07;36.91;101466.97;4969036;28;20918;-75
2023/10/10 11:22:55;;;;;;;26.20;24.10;;;;;;;27.91;32.58;101460.41;4970273;28;20059;-77
2023/10/10 11:25:45;;;;;;;29.55;27.35;;;;;;;28.66;31.20;101461.78;4973620;28;20058;-77
2023/10/10 11:28:21;;;;;;;27.40;25.30;;;;;;;28.14;32.42;101462.09;4951790;29;20055;-76
2023/10/10 11:31:07;;;;;;;27.50;25.40;;;;;;;29.34;31.00;101465.25;4963656;28;20525;-75
2023/10/10 11:33:48;;;;;;;26.13;24.02;;;;;;;29.12;30.70;101464.19;4972864;28;20074;-76
2023/10/10 11:36:41;;;;;;;28.40;26.00;;;;;;;29.17;30.69;101463.25;4973137;28;20097;-75
2023/10/10 11:39:31;;;;;;;27.23;24.92;;;;;;;30.22;29.85;101457.00;4972575;28;20051;-75
2023/10/10 11:41:57;;;;;;;27.20;24.90;;;;;;;29.59;30.63;101467.31;4972455;28;20534;-76
2023/10/10 11:44:24;;;;;;;48.45;25.70;;;;;;;28.34;30.45;101463.56;4971874;28;20441;-76
2023/10/10 11:47:02;;;;;;;26.58;24.38;;;;;;;28.24;32.75;101461.88;4972137;28;20070;-75
2023/10/10 11:49:32;;;;;;;28.27;25.92;;;;;;;27.56;33.18;101455.31;4971541;28;20494;-76
2023/10/10 11:52:19;;;;;;;27.83;25.52;;;;;;;29.76;30.89;101458.34;4971916;28;20686;-75
2023/10/10 11:54:46;;;;;;;26.77;24.58;;;;;;;27.60;33.41;101461.00;4971299;28;20133;-75
2023/10/10 11:57:20;;;;;;;27.83;25.52;;;;;;;28.24;32.45;101461.88;4970692;28;20445;-76
2023/10/10 11:59:47;;;;;;;26.58;24.27;;;;;;;29.22;30.83;101454.91;4970617;28;20045;-76
2023/10/10 12:02:40;;;;;;;26.20;24.00;;;;;;;29.69;30.77;101455.28;4971225;28;20066;-76
2023/10/10 12:07:53;;;;;;;26.20;24.00;;;;;;;29.08;31.09;101465.09;4954859;28;20082;-77
2023/10/10 12:10:42;;;;;;;27.90;25.60;;;;;;;26.24;33.42;101461.84;4964113;28;20097;-76
2023/10/10 12:13:11;;;;;;;28.08;25.67;;;;;;;27.56;34.07;101460.78;4964215;28;20149;-76
2023/10/10 12:15:40;;;;;;;28.58;26.20;;;;;;;28.38;31.88;101466.47;4968948;28;20618;-77
2023/10/10 12:18:09;;;;;;;27.92;25.60;;;;;;;26.89;34.03;101463.06;4970683;28;20049;-76
2023/10/10 12:20:37;;;;;;;26.40;24.25;;;;;;;28.17;32.61;101466.13;4967033;28;20055;-76
2023/10/10 12:23:05;;;;;;;27.60;24.92;;;;;;;29.14;31.21;101463.84;4966131;28;20047;-76
2023/10/10 12:25:32;;;;;;;26.05;24.05;;;;;;;28.51;31.42;101457.47;4971418;28;20142;-76
2023/10/10 12:28:00;;;;;;;25.55;23.48;;;;;;;29.04;30.67;101467.66;4967348;28;20055;-77
2023/10/10 12:30:27;;;;;;;25.60;23.50;;;;;;;29.51;30.51;101468.06;4969476;28;20042;-77
2023/10/10 12:32:56;;;;;;;27.40;25.20;;;;;;;28.69;30.86;101472.09;4958342;28;20051;-77
2023/10/10 12:35:23;;;;;;;32.80;30.40;;;;;;;28.43;31.40;101466.41;4970646;28;20058;-77
2023/10/10 12:38:01;;;;;;;32.22;29.90;;;;;;;29.03;31.06;101470.72;4965460;28;20150;-77
2023/10/10 12:40:33;;;;;;;25.25;23.25;;;;;;;28.93;30.91;101472.56;4966348;28;20055;-77
2023/10/10 12:43:00;;;;;;;;;;;;;;;28.48;31.49;101463.56;4971339;28;20483;-76
2023/10/10 12:45:28;;;;;;;26.65;24.45;;;;;;;28.59;31.36;101459.44;4970488;28;20366;-76
2023/10/10 12:47:55;;;;;;;26.75;24.67;;;;;;;28.25;32.03;101466.19;4971083;28;20055;-77
2023/10/10 12:50:26;;;;;;;25.45;23.63;;;;;;;28.42;30.81;101459.31;4970662;28;20050;-77
2023/10/10 12:53:07;;;;;;;25.43;23.53;;;;;;;28.98;30.88;101458.75;4971188;28;20113;-77
2023/10/10 12:55:46;;;;;;;27.42;25.33;;;;;;;29.19;30.61;101458.25;4970636;28;20384;-77
2023/10/10 12:58:16;;;;;;;25.00;23.20;;;;;;;28.66;30.96;101469.97;4967255;28;20050;-75
2023/10/10 13:00:50;;;;;;;45.67;23.92;;;;;;;27.67;31.41;101460.59;4970475;28;20125;-76
2023/10/10 13:03:27;;;;;;;25.92;24.02;;;;;;;28.04;31.69;101467.75;4970519;28;20050;-75
2023/10/10 13:06:03;;;;;;;26.75;24.85;;;;;;;27.38;31.88;101465.25;4970919;28;20478;-76
2023/10/10 13:08:39;;;;;;;25.98;24.08;;;;;;;27.31;32.57;101464.81;4970089;28;20045;-77
2023/10/10 13:11:14;;;;;;;25.00;23.30;;;;;;;27.68;33.02;101462.19;4970409;28;20046;-75
2023/10/10 13:13:46;;;;;;;26.60;24.90;;;;;;;28.30;32.00;101462.56;4969716;28;20138;-75
2023/10/10 13:16:27;;;;;;;27.90;26.10;;;;;;;26.62;33.89;101463.75;4970089;28;20051;-75
2023/10/10 13:18:55;;;;;;;29.17;27.27;;;;;;;25.46;35.04;101473.09;4969980;28;20051;-76
2023/10/10 13:21:23;;;;;;;25.25;23.60;;;;;;;25.47;35.59;101471.97;4969688;28;20050;-75
2023/10/10 13:23:51;;;;;;;28.17;26.33;;;;;;;24.76;36.44;101481.56;4970428;28;20054;-77
2023/10/10 13:26:21;;;;;;;23.48;21.77;;;;;;;25.19;36.76;101477.16;4970602;28;20058;-77
2023/10/10 13:28:48;;;;;;;23.80;22.10;;;;;;;24.50;37.72;101470.03;4966648;28;20054;-77
2023/10/10 13:31:16;;;;;;;24.00;22.40;;;;;;;24.97;37.00;101474.88;4970870;28;20050;-78
2023/10/10 13:34:05;;;;;;;23.42;21.73;;;;;;;24.78;37.91;101473.91;4975412;28;20553;-77
2023/10/10 13:36:33;;;;;;;25.40;23.60;;;;;;;25.24;36.70;101468.94;4973388;28;20136;-76
2023/10/10 13:39:05;;;;;;;24.02;22.33;;;;;;;25.10;36.78;101471.47;4969351;28;20493;-77
2023/10/10 13:41:35;;;;;;;29.58;27.58;;;;;;;25.16;37.09;101474.19;4974964;28;20063;-77
2023/10/10 13:44:04;;;;;;;26.88;25.10;;;;;;;25.97;36.09;101462.47;4973592;28;20498;-77
2023/10/10 13:46:33;;;;;;;22.73;21.13;;;;;;;25.13;37.39;101468.22;4974013;28;20453;-76
2023/10/10 13:49:00;;;;;;;25.98;23.95;;;;;;;26.10;35.97;101458.22;4973512;28;20062;-77
2023/10/10 13:51:42;;;;;;;29.50;27.60;;;;;;;25.92;35.59;101454.34;4967930;28;20051;-76
2023/10/10 13:54:26;;;;;;;26.98;25.08;;;;;;;25.46;37.00;101463.00;4974370;28;20434;-76
2023/10/10 13:57:04;;;;;;;24.30;22.70;;;;;;;25.84;37.05;101465.91;4974094;28;20441;-76
2023/10/10 13:59:39;;;;;;;28.05;25.58;;;;;;;25.38;36.42;101468.25;4973811;28;20045;-76
2023/10/10 14:02:16;;;;;;;26.98;25.20;;;;;;;24.90;37.95;101474.34;4960780;28;20043;-76
2023/10/10 14:04:50;;;;;;;28.83;27.02;;;;;;;24.21;38.38;101468.81;4973631;28;20141;-76
2023/10/10 14:07:18;;;;;;;28.02;26.25;;;;;;;24.22;39.24;101481.28;4972976;28;20078;-76
2023/10/10 14:09:51;;;;;;;27.33;25.52;;;;;;;24.11;39.05;101477.00;4973248;28;20506;-76
2023/10/10 14:12:21;;;;;;;24.77;23.08;;;;;;;24.58;38.80;101485.75;4973027;28;20086;-76
2023/10/10 14:14:49;;;;;;;24.20;22.38;;;;;;;24.13;40.12;101474.81;4972866;28;20109;-76
2023/10/10 14:17:19;;;;;;;24.50;22.90;;;;;;;24.18;39.42;101474.00;4973149;28;20054;-76
2023/10/10 14:19:45;;;;;;;25.65;24.05;;;;;;;23.88;40.59;101483.06;4972917;28;21009;-76
2023/10/10 14:22:13;;;;;;;28.15;26.45;;;;;;;23.74;40.70;101478.22;4972747;28;20089;-77
2023/10/10 14:24:40;;;;;;;27.27;25.58;;;;;;;23.37;41.37;101486.69;4972960;28;20058;-76
2023/10/10 14:27:08;;;;;;;26.77;25.17;;;;;;;23.24;41.99;101498.09;4972349;28;20106;-78
2023/10/10 14:29:43;;;;;;;26.75;24.95;;;;;;;22.78;43.85;101495.31;4968236;28;20137;-76